Time;durP1;ratioP1;P1;durP2;ratioP2;P2;SDS_P1;SDS_P2;PMS_P1;PMS_P2;Temp;Humidity;BMP_temperature;BMP_pressure;BME280_temperature;BME280_humidity;BME280_pressure;Samples;Min_cycle;Max_cycle;Signal;HPM_P1;HPM_P2
2022/07/06 00:01:06;;;;;;;17.75;10.95;;;;;;;22.76;nan;95204.88;6290982;22;20030;-84
2022/07/06 00:03:32;;;;;;;13.88;10.32;;;;;;;22.67;nan;95196.13;6262963;22;20077;-84
2022/07/06 00:05:57;;;;;;;15.13;10.75;;;;;;;22.81;nan;95198.44;6262570;22;20018;-83
2022/07/06 00:08:23;;;;;;;12.57;10.48;;;;;;;22.59;nan;95143.03;6262467;22;20019;-84
2022/07/06 00:10:48;;;;;;;16.13;11.07;;;;;;;22.76;nan;95187.88;6290582;22;20019;-83
2022/07/06 00:13:14;;;;;;;15.20;11.52;;;;;;;22.89;nan;95189.34;6261793;22;20451;-84
2022/07/06 00:15:39;;;;;;;20.13;11.50;;;;;;;22.62;nan;95145.84;6290681;22;20037;-84
2022/07/06 00:18:05;;;;;;;15.98;12.15;;;;;;;23.20;nan;95218.25;6262434;22;20022;-83
2022/07/06 00:20:30;;;;;;;17.08;11.90;;;;;;;23.23;nan;95223.75;6263271;22;20015;-83
2022/07/06 00:22:55;;;;;;;21.70;12.00;;;;;;;22.95;nan;95190.66;6262685;22;20015;-83
2022/07/06 00:25:21;;;;;;;15.35;11.23;;;;;;;22.90;nan;95171.97;6290236;22;20011;-83
2022/07/06 00:27:46;;;;;;;16.17;11.40;;;;;;;22.98;nan;95204.25;6262321;22;20022;-83
2022/07/06 00:30:12;;;;;;;15.98;11.93;;;;;;;23.17;nan;95251.44;6262870;22;20011;-83
2022/07/06 00:32:37;;;;;;;16.42;11.40;;;;;;;22.98;nan;95208.88;6290839;22;20043;-83
2022/07/06 00:35:04;;;;;;;20.85;11.38;;;;;;;22.65;nan;95165.97;6262645;22;20017;-84
2022/07/06 00:37:29;;;;;;;16.08;10.75;;;;;;;22.92;nan;95208.34;6262260;22;20021;-83
2022/07/06 00:39:54;;;;;;;18.05;11.40;;;;;;;22.96;nan;95247.06;6291142;22;20011;-83
2022/07/06 00:42:20;;;;;;;15.80;11.10;;;;;;;22.70;nan;95193.53;6262020;22;20488;-84
2022/07/06 00:44:45;;;;;;;19.75;12.60;;;;;;;22.45;nan;95164.31;6262106;22;20450;-83
2022/07/06 00:47:11;;;;;;;17.00;10.98;;;;;;;22.50;nan;95199.19;6261890;22;20003;-83
2022/07/06 00:52:20;;;;;;;20.02;12.18;;;;;;;22.84;nan;95228.25;6290021;22;20034;-83
2022/07/06 00:54:46;;;;;;;20.73;11.32;;;;;;;22.66;nan;95221.59;6260962;22;20015;-83
2022/07/06 00:57:12;;;;;;;17.67;11.88;;;;;;;21.61;nan;95145.53;6256360;22;20054;-83
2022/07/06 00:59:38;;;;;;;19.63;12.23;;;;;;;22.21;nan;95189.56;6256276;22;20023;-83
2022/07/06 01:02:03;;;;;;;22.73;14.45;;;;;;;22.51;nan;95233.97;6256647;22;20067;-83
2022/07/06 01:04:29;;;;;;;18.95;13.02;;;;;;;21.99;nan;95128.81;6258285;22;20435;-83
2022/07/06 01:06:56;;;;;;;21.15;13.65;;;;;;;22.31;nan;95197.97;6257277;22;20012;-83
2022/07/06 01:09:22;;;;;;;24.63;14.80;;;;;;;22.27;nan;95182.81;6258092;22;20034;-83
2022/07/06 01:11:48;;;;;;;18.98;14.07;;;;;;;22.04;nan;95117.00;6256424;22;20503;-83
2022/07/06 01:14:15;;;;;;;21.55;13.00;;;;;;;21.89;nan;95127.38;6256930;22;20030;-83
2022/07/06 01:16:40;;;;;;;21.80;13.00;;;;;;;21.42;nan;95059.84;6259713;22;20045;-82
2022/07/06 01:19:06;;;;;;;19.15;13.98;;;;;;;22.51;nan;95187.22;6256966;22;20015;-83
2022/07/06 01:21:31;;;;;;;16.13;13.63;;;;;;;22.55;nan;95204.34;6259694;22;20004;-83
2022/07/06 01:23:57;;;;;;;22.60;15.00;;;;;;;22.25;nan;95133.72;6257665;22;20007;-83
2022/07/06 01:26:22;;;;;;;20.52;16.00;;;;;;;22.21;nan;95136.34;6259360;22;20007;-83
2022/07/06 01:28:50;;;;;;;23.65;14.90;;;;;;;21.80;nan;95097.09;6257530;22;20089;-83
2022/07/06 01:31:24;;;;;;;19.85;14.52;;;;;;;21.90;nan;95110.06;6258851;22;20062;-83
2022/07/06 01:33:51;;;;;;;23.45;14.05;;;;;;;22.37;nan;95173.38;6259147;22;20035;-83
2022/07/06 01:36:17;;;;;;;21.80;14.15;;;;;;;22.05;nan;95118.56;6258917;22;20003;-82
2022/07/06 01:38:50;;;;;;;18.90;15.18;;;;;;;21.97;nan;95106.03;6259636;22;20014;-82
2022/07/06 01:41:16;;;;;;;26.60;17.65;;;;;;;22.11;nan;95168.50;6256797;22;20011;-82
2022/07/06 01:43:42;;;;;;;26.77;18.60;;;;;;;21.77;nan;95186.84;6256580;22;20016;-83
2022/07/06 01:46:07;;;;;;;28.83;18.60;;;;;;;21.37;nan;95084.34;6255412;22;20085;-83
2022/07/06 01:48:33;;;;;;;28.92;20.33;;;;;;;22.36;nan;95196.13;6255426;22;20475;-83
2022/07/06 01:50:59;;;;;;;28.20;20.33;;;;;;;21.73;nan;95120.41;6256137;22;20012;-82
2022/07/06 01:53:24;;;;;;;34.50;21.67;;;;;;;21.52;nan;95139.47;6255974;22;20019;-83
2022/07/06 01:55:49;;;;;;;30.83;20.88;;;;;;;21.64;nan;95162.94;6256481;22;20019;-83
2022/07/06 01:58:15;;;;;;;27.20;17.63;;;;;;;21.41;nan;95150.00;6254587;22;20024;-83
2022/07/06 02:00:41;;;;;;;23.30;15.82;;;;;;;21.30;nan;95159.69;6255020;22;20112;-83
2022/07/06 02:03:06;;;;;;;21.60;15.45;;;;;;;20.84;nan;95108.97;6255404;22;20023;-82
2022/07/06 02:05:32;;;;;;;20.80;14.70;;;;;;;21.01;nan;95151.84;6256943;22;20018;-83
2022/07/06 02:07:57;;;;;;;18.98;12.48;;;;;;;21.06;nan;95216.31;6257279;22;20508;-82
2022/07/06 02:10:23;;;;;;;16.25;11.50;;;;;;;21.04;nan;95187.03;6255198;22;20022;-83
2022/07/06 02:12:48;;;;;;;19.67;11.20;;;;;;;20.97;nan;95202.97;6257295;22;20413;-83
2022/07/06 02:15:14;;;;;;;17.30;11.77;;;;;;;20.78;nan;95159.63;6255402;22;20022;-83
2022/07/06 02:17:39;;;;;;;22.73;16.40;;;;;;;21.28;nan;95225.91;6255216;22;20016;-83
2022/07/06 02:20:06;;;;;;;19.02;11.95;;;;;;;21.25;nan;95199.59;6255526;22;20028;-83
2022/07/06 02:22:31;;;;;;;15.80;9.77;;;;;;;20.99;nan;95151.41;6255550;22;20065;-83
2022/07/06 02:24:56;;;;;;;15.00;10.82;;;;;;;21.69;nan;95211.28;6257443;22;20007;-84
2022/07/06 02:27:22;;;;;;;21.38;11.10;;;;;;;21.10;nan;95114.75;6257376;22;20008;-83
2022/07/06 02:29:47;;;;;;;28.45;12.68;;;;;;;21.31;nan;95136.19;6257756;22;20022;-83
2022/07/06 02:32:13;;;;;;;15.82;11.20;;;;;;;21.41;nan;95139.19;6257741;22;20012;-83
2022/07/06 02:34:38;;;;;;;17.50;10.43;;;;;;;21.64;nan;95176.44;6256754;22;20544;-83
2022/07/06 02:37:04;;;;;;;19.38;10.73;;;;;;;21.16;nan;95086.44;6256745;22;20023;-83
2022/07/06 02:39:29;;;;;;;17.55;10.20;;;;;;;21.73;nan;95169.00;6258501;22;20066;-83
2022/07/06 02:41:55;;;;;;;15.13;10.15;;;;;;;22.00;nan;95210.63;6259915;22;20011;-83
2022/07/06 02:44:20;;;;;;;15.32;10.25;;;;;;;21.01;nan;95073.66;6260178;22;20012;-83
2022/07/06 02:46:46;;;;;;;19.38;10.75;;;;;;;21.31;nan;95106.53;6262576;22;20465;-83
2022/07/06 02:49:11;;;;;;;18.85;11.00;;;;;;;21.42;nan;95115.72;6260855;22;20007;-83
2022/07/06 02:51:38;;;;;;;17.92;10.60;;;;;;;22.03;nan;95209.94;6259829;22;20030;-82
2022/07/06 02:54:03;;;;;;;15.95;10.82;;;;;;;21.26;nan;95115.66;6257146;22;20016;-83
2022/07/06 02:56:29;;;;;;;16.98;10.88;;;;;;;21.16;nan;95145.75;6260238;22;20434;-83
2022/07/06 02:58:54;;;;;;;22.75;11.05;;;;;;;21.31;nan;95139.69;6256755;22;20512;-83
2022/07/06 03:01:20;;;;;;;15.85;11.48;;;;;;;21.89;nan;95218.41;6257003;22;20073;-82
2022/07/06 03:03:45;;;;;;;14.32;11.10;;;;;;;21.18;nan;95122.75;6256623;22;20026;-83
2022/07/06 03:06:11;;;;;;;16.38;11.77;;;;;;;21.60;nan;95168.22;6259152;22;20214;-82
2022/07/06 03:08:36;;;;;;;18.60;11.68;;;;;;;21.39;nan;95136.06;6256288;22;20447;-82
2022/07/06 03:11:02;;;;;;;17.73;10.52;;;;;;;21.91;nan;95195.31;6256176;22;20077;-82
2022/07/06 03:13:28;;;;;;;15.85;10.52;;;;;;;21.80;nan;95169.19;6259255;22;20425;-82
2022/07/06 03:15:54;;;;;;;16.40;11.05;;;;;;;22.04;nan;95198.81;6256442;22;20012;-82
2022/07/06 03:18:20;;;;;;;17.17;10.90;;;;;;;21.72;nan;95145.81;6259162;22;20066;-84
2022/07/06 03:20:45;;;;;;;16.27;11.20;;;;;;;21.50;nan;95117.47;6258952;22;20445;-84
2022/07/06 03:23:11;;;;;;;17.77;9.93;;;;;;;21.83;nan;95214.38;6256281;22;20216;-83
2022/07/06 03:25:36;;;;;;;19.58;10.32;;;;;;;21.81;nan;95219.34;6257268;22;20336;-82
2022/07/06 03:28:02;;;;;;;14.52;10.38;;;;;;;21.88;nan;95236.53;6259319;22;20003;-83
2022/07/06 03:30:27;;;;;;;20.30;10.93;;;;;;;21.76;nan;95230.38;6258805;22;20022;-82
2022/07/06 03:32:53;;;;;;;21.42;10.77;;;;;;;21.73;nan;95221.06;6258965;22;20012;-83
2022/07/06 03:35:19;;;;;;;20.92;11.45;;;;;;;21.39;nan;95144.16;6259935;22;20413;-82
2022/07/06 03:37:44;;;;;;;19.42;10.15;;;;;;;21.83;nan;95235.97;6257110;22;20066;-83
2022/07/06 03:40:10;;;;;;;21.00;10.90;;;;;;;21.72;nan;95238.38;6257069;22;20141;-82
2022/07/06 03:42:36;;;;;;;20.02;11.60;;;;;;;21.85;nan;95239.13;6258255;22;20007;-83
2022/07/06 03:45:03;;;;;;;26.30;12.48;;;;;;;21.41;nan;95166.19;6258104;22;20011;-83
2022/07/06 03:47:29;;;;;;;26.10;12.45;;;;;;;21.88;nan;95241.94;6256109;22;20476;-83
2022/07/06 03:49:54;;;;;;;21.40;11.48;;;;;;;21.50;nan;95185.72;6258199;22;19999;-83
2022/07/06 03:52:19;;;;;;;15.07;11.52;;;;;;;21.64;nan;95241.22;6258858;22;20016;-82
2022/07/06 03:54:45;;;;;;;27.35;12.00;;;;;;;21.37;nan;95205.75;6258796;22;20014;-83
2022/07/06 03:57:13;;;;;;;18.33;11.18;;;;;;;21.87;nan;95245.75;6282184;22;20050;-84
2022/07/06 03:59:39;;;;;;;23.88;12.18;;;;;;;21.63;nan;95250.44;6256971;22;20019;-83
2022/07/06 04:02:04;;;;;;;20.63;11.43;;;;;;;21.20;nan;95162.88;6256469;22;20027;-83
2022/07/06 04:04:30;;;;;;;18.15;11.95;;;;;;;21.37;nan;95216.53;6259499;22;20081;-83
2022/07/06 04:06:55;;;;;;;16.05;10.52;;;;;;;21.58;nan;95243.38;6281907;22;20089;-83
2022/07/06 04:09:21;;;;;;;12.15;8.88;;;;;;;21.34;nan;95222.63;6256151;22;20042;-83
2022/07/06 04:11:46;;;;;;;16.90;10.13;;;;;;;20.94;nan;95162.44;6257230;22;20492;-83
2022/07/06 04:14:12;;;;;;;17.30;9.48;;;;;;;21.15;nan;95198.91;6255780;22;20126;-83
2022/07/06 04:16:37;;;;;;;13.27;9.13;;;;;;;21.10;nan;95244.19;6258686;22;20011;-83
2022/07/06 04:19:02;;;;;;;15.13;9.38;;;;;;;20.58;nan;95158.63;6256491;22;20061;-83
2022/07/06 04:21:28;;;;;;;12.60;8.73;;;;;;;21.03;nan;95268.25;6258055;22;20343;-82
2022/07/06 04:23:53;;;;;;;14.73;8.75;;;;;;;20.86;nan;95239.59;6258317;22;20071;-82
2022/07/06 04:26:19;;;;;;;18.75;9.18;;;;;;;21.03;nan;95207.00;6258308;22;20011;-82
2022/07/06 04:28:44;;;;;;;13.82;7.72;;;;;;;20.50;nan;95191.06;6256609;22;20406;-82
2022/07/06 04:31:10;;;;;;;17.67;7.22;;;;;;;20.34;nan;95244.81;6255776;22;20542;-82
2022/07/06 04:33:35;;;;;;;13.05;7.70;;;;;;;19.84;nan;95161.50;6258301;22;20412;-83
2022/07/06 04:36:01;;;;;;;15.07;8.02;;;;;;;20.59;nan;95267.19;6259523;22;20086;-82
2022/07/06 04:38:26;;;;;;;14.60;8.52;;;;;;;19.91;nan;95232.50;6257347;22;20011;-82
2022/07/06 04:40:52;;;;;;;16.05;8.98;;;;;;;19.76;nan;95216.22;6256822;22;20091;-83
2022/07/06 04:43:17;;;;;;;15.82;9.35;;;;;;;19.51;nan;95193.78;6256867;22;20087;-82
2022/07/06 04:45:43;;;;;;;13.52;8.77;;;;;;;19.98;nan;95291.22;6257941;22;20088;-83
2022/07/06 04:48:08;;;;;;;17.25;8.57;;;;;;;19.70;nan;95268.63;6256457;22;20015;-82
2022/07/06 04:50:34;;;;;;;17.40;10.50;;;;;;;19.59;nan;95300.53;6256803;22;20019;-82
2022/07/06 04:52:59;;;;;;;21.73;11.32;;;;;;;19.65;nan;95280.41;6255934;22;20460;-82
2022/07/06 04:55:25;;;;;;;15.95;11.50;;;;;;;19.38;nan;95264.72;6256709;22;20012;-82
2022/07/06 04:57:53;;;;;;;29.77;12.48;;;;;;;19.21;nan;95269.13;6256174;22;20470;-82
2022/07/06 05:00:19;;;;;;;16.08;11.68;;;;;;;19.41;nan;95275.63;6257304;22;20136;-82
2022/07/06 05:02:44;;;;;;;18.98;12.88;;;;;;;19.17;nan;95230.53;6258064;22;20007;-83
2022/07/06 05:05:10;;;;;;;20.80;13.38;;;;;;;19.89;nan;95304.75;6256059;22;20011;-82
2022/07/06 05:07:39;;;;;;;24.52;14.00;;;;;;;19.48;nan;95265.16;6257653;22;20007;-82
2022/07/06 05:10:06;;;;;;;25.13;14.32;;;;;;;19.49;nan;95282.88;6256144;22;20012;-82
2022/07/06 05:12:31;;;;;;;28.40;14.80;;;;;;;19.33;nan;95243.41;6254646;22;20032;-83
2022/07/06 05:14:57;;;;;;;22.38;14.10;;;;;;;19.72;nan;95312.94;6257055;22;20411;-83
2022/07/06 05:17:22;;;;;;;29.30;15.30;;;;;;;19.55;nan;95256.56;6258806;22;20342;-83
2022/07/06 05:19:48;;;;;;;21.67;15.48;;;;;;;19.78;nan;95292.78;6280989;22;20054;-83
2022/07/06 05:22:13;;;;;;;24.10;15.35;;;;;;;19.30;nan;95247.53;6258593;22;20015;-82
2022/07/06 05:24:39;;;;;;;20.65;15.93;;;;;;;19.92;nan;95305.97;6254910;22;20076;-83
2022/07/06 05:27:04;;;;;;;23.65;15.82;;;;;;;19.58;nan;95290.88;6257896;22;20366;-83
2022/07/06 05:29:30;;;;;;;22.10;15.75;;;;;;;19.94;nan;95323.38;6255141;22;20020;-83
2022/07/06 05:31:55;;;;;;;24.42;16.38;;;;;;;19.55;nan;95256.56;6256544;22;20822;-83
2022/07/06 05:34:20;;;;;;;30.40;16.40;;;;;;;19.80;nan;95297.84;6256172;22;20023;-83
2022/07/06 05:36:46;;;;;;;20.85;14.98;;;;;;;19.89;nan;95328.19;6255178;22;20012;-83
2022/07/06 05:39:11;;;;;;;22.50;15.27;;;;;;;19.52;nan;95276.84;6258340;22;20013;-83
2022/07/06 05:41:37;;;;;;;20.83;13.88;;;;;;;19.96;nan;95339.22;6254948;22;20078;-83
2022/07/06 05:44:02;;;;;;;24.63;14.07;;;;;;;19.96;nan;95325.75;6254509;22;20295;-83
2022/07/06 05:46:28;;;;;;;17.98;12.98;;;;;;;19.56;nan;95276.97;6256148;22;20501;-83
2022/07/06 05:51:37;;;;;;;21.02;13.88;;;;;;;19.35;nan;95268.06;6254266;22;20189;-83
2022/07/06 05:54:03;;;;;;;22.90;14.98;;;;;;;19.40;nan;95257.91;6252720;22;20015;-83
2022/07/06 05:56:28;;;;;;;20.13;13.85;;;;;;;19.16;nan;95239.72;6253832;22;20011;-83
2022/07/06 05:58:54;;;;;;;18.20;13.32;;;;;;;19.26;nan;95236.66;6255055;22;20036;-82
2022/07/06 06:01:19;;;;;;;23.27;14.25;;;;;;;20.05;nan;95339.94;6257414;22;20011;-83
2022/07/06 06:03:44;;;;;;;22.17;13.40;;;;;;;19.68;nan;95297.78;6255432;22;20020;-83
2022/07/06 06:06:10;;;;;;;20.33;13.77;;;;;;;19.74;nan;95310.72;6255977;22;20831;-83
2022/07/06 06:08:35;;;;;;;24.83;14.63;;;;;;;19.76;nan;95289.63;6257947;22;20367;-83
2022/07/06 06:11:01;;;;;;;24.85;14.57;;;;;;;19.73;nan;95284.94;6260110;22;20038;-84
2022/07/06 06:13:26;;;;;;;21.60;14.10;;;;;;;19.77;nan;95272.38;6258138;22;20314;-84
2022/07/06 06:15:51;;;;;;;18.60;13.23;;;;;;;19.51;nan;95212.63;6257885;22;20490;-84
2022/07/06 06:18:18;;;;;;;20.60;13.65;;;;;;;19.86;nan;95229.25;6258312;22;20228;-83
2022/07/06 06:20:45;;;;;;;19.45;13.63;;;;;;;20.05;nan;95275.31;6259405;22;20035;-83
2022/07/06 06:23:10;;;;;;;20.75;14.35;;;;;;;20.54;nan;95354.41;6259467;22;20004;-84
2022/07/06 06:25:38;;;;;;;17.70;13.95;;;;;;;20.41;nan;95345.50;6257896;22;20042;-83
2022/07/06 06:28:06;;;;;;;19.67;13.25;;;;;;;19.94;nan;95264.16;6255720;22;20123;-84
2022/07/06 06:30:32;;;;;;;22.25;13.82;;;;;;;20.44;nan;95349.44;6258859;22;20028;-84
2022/07/06 06:33:18;;;;;;;21.08;13.93;;;;;;;20.49;nan;95349.22;6256822;22;20019;-84
2022/07/06 06:35:45;;;;;;;23.20;13.80;;;;;;;20.51;nan;95311.97;6257154;22;20525;-84
2022/07/06 06:38:11;;;;;;;17.60;12.88;;;;;;;20.49;nan;95316.09;6259391;22;20014;-84
2022/07/06 06:40:36;;;;;;;24.75;15.10;;;;;;;20.74;nan;95339.31;6257515;22;20429;-83
2022/07/06 06:43:02;;;;;;;19.65;14.20;;;;;;;20.49;nan;95294.56;6259068;22;19999;-83
2022/07/06 06:45:28;;;;;;;22.02;13.68;;;;;;;20.80;nan;95336.06;6257520;22;20841;-83
2022/07/06 06:47:53;;;;;;;19.58;14.38;;;;;;;20.02;nan;95211.38;6258144;22;20394;-83
2022/07/06 06:50:19;;;;;;;20.20;13.52;;;;;;;19.99;nan;95217.41;6260668;22;20018;-84
2022/07/06 06:52:44;;;;;;;21.45;15.02;;;;;;;20.11;nan;95238.19;6260298;22;20079;-83
2022/07/06 06:55:10;;;;;;;22.45;14.07;;;;;;;20.87;nan;95313.94;6257972;22;20028;-83
2022/07/06 06:57:36;;;;;;;19.20;12.52;;;;;;;20.67;nan;95291.31;6259201;22;20113;-84
2022/07/06 07:00:02;;;;;;;19.27;12.75;;;;;;;20.26;nan;95211.44;6231827;22;20015;-83
2022/07/06 07:02:28;;;;;;;19.83;13.90;;;;;;;20.79;nan;95298.66;6259506;22;20034;-83
2022/07/06 07:04:53;;;;;;;19.23;13.18;;;;;;;20.67;nan;95255.53;6232135;22;20020;-84
2022/07/06 07:07:19;;;;;;;24.65;12.25;;;;;;;21.24;nan;95301.28;6259682;22;20458;-83
2022/07/06 07:09:44;;;;;;;19.58;12.68;;;;;;;21.05;nan;95255.22;6231636;22;20098;-84
2022/07/06 07:12:11;;;;;;;15.90;12.57;;;;;;;21.22;nan;95271.16;6230846;22;20094;-83
2022/07/06 07:14:37;;;;;;;21.15;12.63;;;;;;;21.00;nan;95231.16;6229453;22;20538;-84
2022/07/06 07:17:03;;;;;;;19.17;12.43;;;;;;;21.60;nan;95327.44;6230862;22;20015;-84
2022/07/06 07:19:29;;;;;;;15.55;11.80;;;;;;;20.69;nan;95189.38;6230778;22;20035;-84
2022/07/06 07:21:54;;;;;;;17.40;13.23;;;;;;;21.16;nan;95291.38;6232027;22;20014;-83
2022/07/06 07:24:20;;;;;;;21.85;14.35;;;;;;;20.70;nan;95182.09;6231142;22;20020;-84
2022/07/06 07:26:45;;;;;;;22.85;14.63;;;;;;;21.93;nan;95332.69;6259793;22;20007;-84
2022/07/06 07:29:11;;;;;;;21.33;14.57;;;;;;;21.78;nan;95291.00;6232041;22;20019;-84
2022/07/06 07:31:36;;;;;;;20.67;14.80;;;;;;;21.84;nan;95300.41;6231687;22;20418;-83
2022/07/06 07:34:01;;;;;;;25.73;15.02;;;;;;;21.62;nan;95238.06;6259034;22;20019;-83
2022/07/06 07:36:27;;;;;;;19.63;14.93;;;;;;;21.76;nan;95230.38;6231680;22;20011;-84
2022/07/06 07:38:53;;;;;;;22.50;14.00;;;;;;;22.45;nan;95313.72;6231076;22;20178;-83
2022/07/06 07:41:18;;;;;;;19.85;14.68;;;;;;;21.41;nan;95200.47;6259038;22;20431;-84
2022/07/06 07:43:44;;;;;;;18.15;13.70;;;;;;;21.90;nan;95266.66;6231254;22;20015;-84
2022/07/06 07:46:10;;;;;;;18.15;13.73;;;;;;;21.81;nan;95287.63;6258180;22;20140;-84
2022/07/06 07:48:35;;;;;;;15.90;12.55;;;;;;;21.81;nan;95303.81;6257171;22;20012;-84
2022/07/06 07:51:01;;;;;;;16.45;13.30;;;;;;;21.82;nan;95307.28;6228965;22;20590;-84
2022/07/06 07:53:26;;;;;;;20.17;14.40;;;;;;;21.56;nan;95273.38;6235464;22;20362;-83
2022/07/06 07:55:52;;;;;;;20.73;12.90;;;;;;;21.83;nan;95317.75;6231493;22;20308;-83
2022/07/06 07:58:17;;;;;;;21.70;13.98;;;;;;;21.78;nan;95299.09;6250331;22;20584;-84
2022/07/06 08:00:43;;;;;;;19.30;13.30;;;;;;;22.07;nan;95314.22;6289912;22;20008;-83
2022/07/06 08:03:09;;;;;;;20.05;12.57;;;;;;;21.71;nan;95252.22;6262478;22;20136;-83
2022/07/06 08:05:34;;;;;;;20.50;13.35;;;;;;;21.74;nan;95265.78;6261569;22;20418;-84
2022/07/06 08:08:00;;;;;;;18.42;14.32;;;;;;;22.20;nan;95306.88;6261940;22;20148;-83
2022/07/06 08:10:25;;;;;;;21.45;13.55;;;;;;;21.13;nan;95171.47;6260496;22;20025;-83
2022/07/06 08:12:51;;;;;;;16.88;13.00;;;;;;;21.90;nan;95279.34;6262114;22;20461;-83
2022/07/06 08:15:16;;;;;;;16.60;11.90;;;;;;;21.70;nan;95232.53;6257418;22;20015;-84
2022/07/06 08:17:42;;;;;;;19.83;12.85;;;;;;;22.02;nan;95292.88;6261817;22;20022;-83
2022/07/06 08:20:08;;;;;;;16.48;13.02;;;;;;;21.94;nan;95245.94;6261724;22;20037;-82
2022/07/06 08:22:37;;;;;;;17.70;12.88;;;;;;;22.12;nan;95251.09;6260844;22;20011;-83
2022/07/06 08:25:04;;;;;;;20.52;14.00;;;;;;;22.16;nan;95257.34;6261951;22;20081;-83
2022/07/06 08:27:29;;;;;;;15.27;12.27;;;;;;;22.10;nan;95254.13;6258853;22;20545;-83
2022/07/06 08:29:54;;;;;;;15.70;13.38;;;;;;;22.30;nan;95293.66;6287817;22;20011;-84
2022/07/06 08:32:20;;;;;;;15.82;12.00;;;;;;;22.09;nan;95233.66;6258131;22;20015;-83
2022/07/06 08:34:46;;;;;;;17.05;12.68;;;;;;;22.70;nan;95295.47;6259930;22;20007;-83
2022/07/06 08:37:12;;;;;;;21.17;12.38;;;;;;;22.30;nan;95258.53;6256745;22;20013;-83
2022/07/06 08:39:37;;;;;;;19.75;11.80;;;;;;;21.95;nan;95198.91;6287882;22;20461;-83
2022/07/06 08:42:03;;;;;;;15.38;12.13;;;;;;;22.54;nan;95241.38;6288310;22;20007;-83
2022/07/06 08:44:29;;;;;;;14.40;11.55;;;;;;;22.55;nan;95215.16;6260218;22;20022;-84
2022/07/06 08:46:58;;;;;;;19.10;14.32;;;;;;;23.31;nan;95303.97;6260449;22;20081;-84
2022/07/06 08:49:26;;;;;;;21.98;12.75;;;;;;;22.50;nan;95210.81;6259228;22;20011;-83
2022/07/06 08:51:52;;;;;;;20.88;12.38;;;;;;;22.85;nan;95248.75;6259444;22;20022;-83
2022/07/06 08:54:19;;;;;;;16.90;11.38;;;;;;;22.48;nan;95175.22;6261378;22;20015;-84
2022/07/06 08:56:45;;;;;;;16.75;11.57;;;;;;;23.15;nan;95264.53;6259049;22;20590;-84
2022/07/06 08:59:12;;;;;;;16.48;11.98;;;;;;;23.05;nan;95217.94;6229112;22;20011;-84
2022/07/06 09:01:38;;;;;;;30.25;13.45;;;;;;;23.76;nan;95284.50;6229590;22;20018;-84
2022/07/06 09:04:06;;;;;;;21.23;11.98;;;;;;;23.36;nan;95275.81;6228800;22;20012;-84
2022/07/06 09:06:35;;;;;;;16.55;12.45;;;;;;;23.35;nan;95282.38;6229253;22;20521;-84
2022/07/06 09:09:05;;;;;;;25.38;12.82;;;;;;;23.56;nan;95301.06;6257103;22;20427;-83
2022/07/06 09:11:31;;;;;;;15.27;12.07;;;;;;;23.13;nan;95213.47;6228265;22;20212;-84
2022/07/06 09:13:56;;;;;;;19.02;12.57;;;;;;;23.19;nan;95227.53;6256726;22;20008;-84
2022/07/06 09:16:29;;;;;;;16.13;13.00;;;;;;;22.91;nan;95177.03;6228554;22;20260;-84
2022/07/06 09:18:55;;;;;;;18.88;12.57;;;;;;;23.75;nan;95314.63;6228523;22;20045;-84
2022/07/06 09:21:32;;;;;;;19.33;13.15;;;;;;;23.31;nan;95279.59;6255320;22;20011;-83
2022/07/06 09:24:04;;;;;;;26.98;14.57;;;;;;;23.04;nan;95229.88;6228642;22;20411;-83
2022/07/06 09:26:30;;;;;;;17.00;13.27;;;;;;;23.30;nan;95255.59;6228779;22;20016;-83
2022/07/06 09:28:57;;;;;;;16.33;12.10;;;;;;;23.54;nan;95306.03;6229709;22;20095;-83
2022/07/06 09:31:22;;;;;;;17.42;13.00;;;;;;;23.21;nan;95269.31;6226580;22;20018;-83
2022/07/06 09:33:59;;;;;;;21.58;13.93;;;;;;;23.62;nan;95305.84;6223850;22;20024;-84
2022/07/06 09:36:47;;;;;;;18.00;14.63;;;;;;;23.35;nan;95283.16;6220390;22;20019;-83
2022/07/06 09:39:24;;;;;;;22.08;13.60;;;;;;;23.34;nan;95238.31;6228461;22;20102;-84
2022/07/06 09:41:53;;;;;;;23.77;13.48;;;;;;;22.97;nan;95213.50;6226983;22;20011;-84
2022/07/06 09:44:24;;;;;;;14.85;13.25;;;;;;;23.74;nan;95300.31;6228815;22;20477;-83
2022/07/06 09:46:50;;;;;;;20.05;14.55;;;;;;;23.92;nan;95299.91;6231031;22;20053;-84
2022/07/06 09:49:20;;;;;;;19.88;13.80;;;;;;;23.61;nan;95276.41;6257534;22;20018;-83
2022/07/06 09:51:47;;;;;;;16.33;14.20;;;;;;;23.68;nan;95252.19;6256453;22;20016;-83
2022/07/06 09:54:13;;;;;;;19.75;15.40;;;;;;;24.55;nan;95295.00;6230173;22;20043;-83
2022/07/06 09:59:27;;;;;;;18.20;13.02;;;;;;;24.35;53.08;95191.22;5093105;27;20538;-88
2022/07/06 10:02:14;;;;;;;16.98;13.95;;;;;;;25.32;52.51;95298.28;5071424;28;20044;-88
2022/07/06 10:04:40;;;;;;;21.08;14.13;;;;;;;24.51;52.67;95204.69;5081140;28;20510;-88
2022/07/06 10:07:07;;;;;;;19.02;14.13;;;;;;;25.22;51.54;95197.69;5077757;28;20064;-88
2022/07/06 10:09:33;;;;;;;22.00;14.48;;;;;;;25.53;51.49;95275.31;5087661;28;20035;-88
2022/07/06 10:12:03;;;;;;;17.27;14.57;;;;;;;25.90;50.27;95270.81;5086768;28;20043;-88
2022/07/06 10:14:31;;;;;;;20.42;14.07;;;;;;;24.98;49.95;95077.59;5079721;28;20040;-88
2022/07/06 10:16:58;;;;;;;21.05;15.25;;;;;;;26.87;48.73;95278.88;5078330;28;20044;-89
2022/07/06 10:19:25;;;;;;;21.17;15.35;;;;;;;24.82;47.36;94951.41;5077385;28;20036;-88
2022/07/06 10:21:52;;;;;;;18.65;13.75;;;;;;;25.66;47.65;95116.44;5075579;28;20048;-88
2022/07/06 10:24:20;;;;;;;15.95;11.95;;;;;;;24.41;47.25;94947.81;5075649;28;20070;-88
2022/07/06 10:26:49;;;;;;;18.73;14.52;;;;;;;23.31;48.50;94770.13;5076902;28;20746;-88
2022/07/06 10:29:15;;;;;;;20.73;14.35;;;;;;;26.73;47.59;95257.78;5064364;28;20047;-89
2022/07/06 10:31:45;;;;;;;19.10;14.32;;;;;;;27.20;47.05;95256.25;5077127;28;20062;-89
2022/07/06 10:34:13;;;;;;;18.42;13.88;;;;;;;26.65;46.65;95247.19;5077093;28;20068;-89
2022/07/06 10:36:41;;;;;;;15.65;12.93;;;;;;;26.99;46.22;95266.97;5081771;28;20036;-89
2022/07/06 10:41:52;;;;;;;20.23;13.27;;;;;;;26.52;46.18;95141.41;5080410;28;20047;-89
2022/07/06 10:44:20;;;;;;;15.30;13.68;;;;;;;27.11;46.67;95239.47;5078640;28;20040;-89
2022/07/06 10:47:00;;;;;;;17.48;13.73;;;;;;;27.09;45.76;95198.22;5062555;28;20047;-89
2022/07/06 10:49:27;;;;;;;13.32;11.93;;;;;;;27.20;44.65;95204.53;5096038;28;20031;-89
2022/07/06 10:51:53;;;;;;;15.23;12.38;;;;;;;27.61;44.01;95235.94;5076939;28;20036;-89
2022/07/06 10:54:20;;;;;;;14.30;12.23;;;;;;;27.74;44.27;95262.88;5076571;28;20032;-89
2022/07/06 10:56:47;;;;;;;15.98;12.48;;;;;;;28.04;43.84;95257.94;5077778;28;20055;-89
2022/07/06 10:59:23;;;;;;;14.20;12.05;;;;;;;27.47;44.39;95183.28;5077295;28;20093;-89
2022/07/06 11:02:10;;;;;;;16.67;13.45;;;;;;;27.69;45.06;95261.28;5079515;28;20097;-89
2022/07/06 11:04:36;;;;;;;17.15;14.50;;;;;;;27.49;44.91;95252.56;5077609;28;20516;-89
2022/07/06 11:07:10;;;;;;;21.40;14.48;;;;;;;26.87;46.04;95178.22;5079926;28;20032;-89
2022/07/06 11:09:37;;;;;;;18.27;13.35;;;;;;;26.68;46.33;95260.84;5071318;28;20129;-89
2022/07/06 11:12:16;;;;;;;17.30;14.05;;;;;;;26.59;46.76;95240.53;5081261;28;20042;-88
2022/07/06 11:14:42;;;;;;;16.70;12.90;;;;;;;24.95;47.12;95062.03;5047376;28;20124;-88
2022/07/06 11:17:10;;;;;;;14.77;12.40;;;;;;;26.27;46.05;95240.22;5065388;28;20186;-87
2022/07/06 11:19:36;;;;;;;16.60;12.70;;;;;;;26.79;45.29;95226.34;5078912;28;20486;-87
2022/07/06 11:22:10;;;;;;;16.33;13.95;;;;;;;27.36;45.02;95228.75;5065388;28;20041;-88
2022/07/06 11:24:39;;;;;;;17.48;15.45;;;;;;;27.20;45.05;95196.38;5055845;28;20150;-87
2022/07/06 11:27:09;;;;;;;20.50;16.25;;;;;;;25.67;46.57;95053.63;5052877;28;20195;-87
2022/07/06 11:29:38;;;;;;;17.60;15.65;;;;;;;26.01;47.23;95148.69;5051924;28;20365;-87
2022/07/06 11:32:05;;;;;;;15.65;14.05;;;;;;;25.36;48.16;95185.09;5044221;28;20052;-87
2022/07/06 11:34:34;;;;;;;17.33;15.25;;;;;;;25.13;48.86;95157.25;5057891;28;20139;-87
2022/07/06 11:37:02;;;;;;;17.13;15.32;;;;;;;25.42;49.08;95198.34;5063569;28;20040;-87
2022/07/06 11:39:29;;;;;;;19.40;13.85;;;;;;;25.22;48.13;95190.34;5047458;28;20064;-87